sensor_id;sensor_type;location;lat;lon;timestamp;temperature;humidity
28189;DHT22;15471;51.166;4.470;2023-01-29T00:01:10;-0.90;99.90
28189;DHT22;15471;51.166;4.470;2023-01-29T00:03:36;-0.90;99.90
28189;DHT22;15471;51.166;4.470;2023-01-29T00:06:06;-0.90;99.90
28189;DHT22;15471;51.166;4.470;2023-01-29T00:08:34;-0.90;99.90
28189;DHT22;15471;51.166;4.470;2023-01-29T00:11:05;-1.00;99.90
28189;DHT22;15471;51.166;4.470;2023-01-29T00:13:31;-1.00;99.90
28189;DHT22;15471;51.166;4.470;2023-01-29T00:16:00;-0.90;99.90
28189;DHT22;15471;51.166;4.470;2023-01-29T00:18:26;-0.80;99.90
28189;DHT22;15471;51.166;4.470;2023-01-29T00:20:53;-0.90;99.90
28189;DHT22;15471;51.166;4.470;2023-01-29T00:23:19;-0.90;99.90
28189;DHT22;15471;51.166;4.470;2023-01-29T00:25:45;-0.90;99.90
28189;DHT22;15471;51.166;4.470;2023-01-29T00:28:12;-0.90;99.90
28189;DHT22;15471;51.166;4.470;2023-01-29T00:30:38;-0.80;99.90
28189;DHT22;15471;51.166;4.470;2023-01-29T00:33:04;-0.90;99.90
28189;DHT22;15471;51.166;4.470;2023-01-29T00:35:31;-1.00;99.90
28189;DHT22;15471;51.166;4.470;2023-01-29T00:37:57;-0.90;99.90
28189;DHT22;15471;51.166;4.470;2023-01-29T00:40:24;-0.90;99.90
28189;DHT22;15471;51.166;4.470;2023-01-29T00:42:51;-0.90;99.90
28189;DHT22;15471;51.166;4.470;2023-01-29T00:45:37;-1.00;99.90
28189;DHT22;15471;51.166;4.470;2023-01-29T00:48:04;-0.90;99.90
28189;DHT22;15471;51.166;4.470;2023-01-29T00:50:31;-1.00;99.90
28189;DHT22;15471;51.166;4.470;2023-01-29T00:52:57;-0.90;99.90
28189;DHT22;15471;51.166;4.470;2023-01-29T00:55:23;-0.90;99.90
28189;DHT22;15471;51.166;4.470;2023-01-29T00:57:49;-0.90;99.90
28189;DHT22;15471;51.166;4.470;2023-01-29T01:00:17;-0.90;99.90
28189;DHT22;15471;51.166;4.470;2023-01-29T01:02:43;-0.90;99.90
28189;DHT22;15471;51.166;4.470;2023-01-29T01:05:28;-1.00;99.90
28189;DHT22;15471;51.166;4.470;2023-01-29T01:07:57;-1.00;99.90
28189;DHT22;15471;51.166;4.470;2023-01-29T01:10:31;-1.10;99.90
28189;DHT22;15471;51.166;4.470;2023-01-29T01:13:03;-1.10;99.90
28189;DHT22;15471;51.166;4.470;2023-01-29T01:15:32;-1.10;99.90
28189;DHT22;15471;51.166;4.470;2023-01-29T01:18:00;-1.10;99.90
28189;DHT22;15471;51.166;4.470;2023-01-29T01:20:29;-1.10;99.90
28189;DHT22;15471;51.166;4.470;2023-01-29T01:22:56;-1.10;99.90
28189;DHT22;15471;51.166;4.470;2023-01-29T01:25:23;-1.20;99.90
28189;DHT22;15471;51.166;4.470;2023-01-29T01:27:53;-1.20;99.90
28189;DHT22;15471;51.166;4.470;2023-01-29T01:30:20;-1.20;99.90
28189;DHT22;15471;51.166;4.470;2023-01-29T01:32:46;-1.10;99.90
28189;DHT22;15471;51.166;4.470;2023-01-29T01:35:12;-1.10;99.90
28189;DHT22;15471;51.166;4.470;2023-01-29T01:37:40;-1.20;99.90
28189;DHT22;15471;51.166;4.470;2023-01-29T01:40:10;-1.10;99.90
28189;DHT22;15471;51.166;4.470;2023-01-29T01:42:43;-1.10;99.90
28189;DHT22;15471;51.166;4.470;2023-01-29T01:45:29;-1.20;99.90
28189;DHT22;15471;51.166;4.470;2023-01-29T01:50:48;-1.10;99.90
28189;DHT22;15471;51.166;4.470;2023-01-29T01:53:23;-1.00;99.90
28189;DHT22;15471;51.166;4.470;2023-01-29T01:55:53;-1.10;99.90
28189;DHT22;15471;51.166;4.470;2023-01-29T01:58:24;-1.10;99.90
28189;DHT22;15471;51.166;4.470;2023-01-29T02:00:51;-1.10;99.90
28189;DHT22;15471;51.166;4.470;2023-01-29T02:03:19;-1.20;99.90
28189;DHT22;15471;51.166;4.470;2023-01-29T02:06:04;-1.10;99.90
28189;DHT22;15471;51.166;4.470;2023-01-29T02:09:03;-1.10;99.90
28189;DHT22;15471;51.166;4.470;2023-01-29T02:11:50;-1.10;99.90
28189;DHT22;15471;51.166;4.470;2023-01-29T02:14:16;-1.00;99.90
28189;DHT22;15471;51.166;4.470;2023-01-29T02:16:42;-1.00;99.90
28189;DHT22;15471;51.166;4.470;2023-01-29T02:19:47;-0.90;99.90
28189;DHT22;15471;51.166;4.470;2023-01-29T02:30:54;-0.40;99.90
28189;DHT22;15471;51.166;4.470;2023-01-29T02:41:36;0.00;99.90
28189;DHT22;15471;51.166;4.470;2023-01-29T02:44:34;0.10;99.90
28189;DHT22;15471;51.166;4.470;2023-01-29T02:53:17;0.30;99.90
28189;DHT22;15471;51.166;4.470;2023-01-29T02:55:49;0.30;99.90
28189;DHT22;15471;51.166;4.470;2023-01-29T03:00:47;0.40;99.90
28189;DHT22;15471;51.166;4.470;2023-01-29T03:03:17;0.40;99.90
28189;DHT22;15471;51.166;4.470;2023-01-29T03:12:46;0.50;99.90
28189;DHT22;15471;51.166;4.470;2023-01-29T03:18:56;0.60;99.90
28189;DHT22;15471;51.166;4.470;2023-01-29T03:21:41;0.60;99.90
28189;DHT22;15471;51.166;4.470;2023-01-29T03:25:39;0.70;99.90
28189;DHT22;15471;51.166;4.470;2023-01-29T03:28:29;0.80;99.90
28189;DHT22;15471;51.166;4.470;2023-01-29T03:35:15;0.80;99.90
28189;DHT22;15471;51.166;4.470;2023-01-29T03:48:44;0.90;99.90
28189;DHT22;15471;51.166;4.470;2023-01-29T03:57:37;0.70;99.90
28189;DHT22;15471;51.166;4.470;2023-01-29T04:05:54;0.80;99.90
28189;DHT22;15471;51.166;4.470;2023-01-29T04:09:20;0.90;99.90
28189;DHT22;15471;51.166;4.470;2023-01-29T04:40:57;0.80;99.90
28189;DHT22;15471;51.166;4.470;2023-01-29T04:50:45;0.80;99.90
28189;DHT22;15471;51.166;4.470;2023-01-29T04:57:17;0.90;99.90
28189;DHT22;15471;51.166;4.470;2023-01-29T05:07:00;1.10;99.90
28189;DHT22;15471;51.166;4.470;2023-01-29T05:09:27;1.20;99.90
28189;DHT22;15471;51.166;4.470;2023-01-29T05:11:52;1.30;99.90
28189;DHT22;15471;51.166;4.470;2023-01-29T05:14:26;1.30;99.90
28189;DHT22;15471;51.166;4.470;2023-01-29T05:20:55;1.30;99.90
28189;DHT22;15471;51.166;4.470;2023-01-29T05:27:25;1.40;99.90
28189;DHT22;15471;51.166;4.470;2023-01-29T05:30:12;1.40;99.90
28189;DHT22;15471;51.166;4.470;2023-01-29T05:32:39;1.50;99.90
28189;DHT22;15471;51.166;4.470;2023-01-29T05:35:05;1.60;99.90
28189;DHT22;15471;51.166;4.470;2023-01-29T05:37:31;1.60;99.90
28189;DHT22;15471;51.166;4.470;2023-01-29T05:39:57;1.60;99.90
28189;DHT22;15471;51.166;4.470;2023-01-29T05:42:26;1.60;99.90
28189;DHT22;15471;51.166;4.470;2023-01-29T05:48:55;1.60;99.90
28189;DHT22;15471;51.166;4.470;2023-01-29T05:51:21;1.60;99.90
28189;DHT22;15471;51.166;4.470;2023-01-29T05:53:47;1.50;99.90
28189;DHT22;15471;51.166;4.470;2023-01-29T05:56:13;1.50;99.90
28189;DHT22;15471;51.166;4.470;2023-01-29T06:02:34;1.50;99.90
28189;DHT22;15471;51.166;4.470;2023-01-29T06:08:34;1.50;99.90
28189;DHT22;15471;51.166;4.470;2023-01-29T06:11:00;1.60;99.90
28189;DHT22;15471;51.166;4.470;2023-01-29T06:13:25;1.70;99.90
28189;DHT22;15471;51.166;4.470;2023-01-29T06:15:51;1.70;99.90
28189;DHT22;15471;51.166;4.470;2023-01-29T06:18:17;1.80;99.90
28189;DHT22;15471;51.166;4.470;2023-01-29T06:20:43;1.70;99.90
28189;DHT22;15471;51.166;4.470;2023-01-29T06:23:15;1.70;99.90
28189;DHT22;15471;51.166;4.470;2023-01-29T06:29:14;1.80;99.90
28189;DHT22;15471;51.166;4.470;2023-01-29T06:31:40;1.80;99.90
28189;DHT22;15471;51.166;4.470;2023-01-29T06:34:06;1.80;99.90
28189;DHT22;15471;51.166;4.470;2023-01-29T06:36:32;1.80;99.90
28189;DHT22;15471;51.166;4.470;2023-01-29T06:38:58;1.70;99.90
28189;DHT22;15471;51.166;4.470;2023-01-29T06:41:44;1.80;99.90
28189;DHT22;15471;51.166;4.470;2023-01-29T06:44:10;1.80;99.90
28189;DHT22;15471;51.166;4.470;2023-01-29T06:49:39;1.60;99.90
28189;DHT22;15471;51.166;4.470;2023-01-29T06:52:05;1.50;99.90
28189;DHT22;15471;51.166;4.470;2023-01-29T06:54:31;1.60;99.90
28189;DHT22;15471;51.166;4.470;2023-01-29T06:56:57;1.70;99.90
28189;DHT22;15471;51.166;4.470;2023-01-29T06:59:23;1.70;99.90
28189;DHT22;15471;51.166;4.470;2023-01-29T07:01:48;1.70;99.90
28189;DHT22;15471;51.166;4.470;2023-01-29T07:04:14;1.60;99.90
28189;DHT22;15471;51.166;4.470;2023-01-29T07:06:40;1.60;99.90
28189;DHT22;15471;51.166;4.470;2023-01-29T07:09:06;1.50;99.90
28189;DHT22;15471;51.166;4.470;2023-01-29T07:11:33;1.50;99.90
28189;DHT22;15471;51.166;4.470;2023-01-29T07:13:59;1.50;99.90
28189;DHT22;15471;51.166;4.470;2023-01-29T07:16:25;1.60;99.90
28189;DHT22;15471;51.166;4.470;2023-01-29T07:18:51;1.50;99.90
28189;DHT22;15471;51.166;4.470;2023-01-29T07:21:17;1.60;99.90
28189;DHT22;15471;51.166;4.470;2023-01-29T07:23:42;1.60;99.90
28189;DHT22;15471;51.166;4.470;2023-01-29T07:26:09;1.70;99.90
28189;DHT22;15471;51.166;4.470;2023-01-29T07:28:37;1.70;99.90
28189;DHT22;15471;51.166;4.470;2023-01-29T07:31:03;1.70;99.90
28189;DHT22;15471;51.166;4.470;2023-01-29T07:33:29;1.80;99.90
28189;DHT22;15471;51.166;4.470;2023-01-29T07:35:55;1.80;99.90
28189;DHT22;15471;51.166;4.470;2023-01-29T07:38:21;1.80;99.90
28189;DHT22;15471;51.166;4.470;2023-01-29T07:40:47;1.90;99.90
28189;DHT22;15471;51.166;4.470;2023-01-29T07:43:13;2.00;99.90
28189;DHT22;15471;51.166;4.470;2023-01-29T07:45:40;1.90;99.90
28189;DHT22;15471;51.166;4.470;2023-01-29T07:48:10;1.90;99.90
28189;DHT22;15471;51.166;4.470;2023-01-29T07:50:36;2.00;99.90
28189;DHT22;15471;51.166;4.470;2023-01-29T07:53:02;2.10;99.90
28189;DHT22;15471;51.166;4.470;2023-01-29T07:56:00;2.10;99.90
28189;DHT22;15471;51.166;4.470;2023-01-29T08:06:21;2.30;99.90
28189;DHT22;15471;51.166;4.470;2023-01-29T08:08:47;2.40;99.90
28189;DHT22;15471;51.166;4.470;2023-01-29T08:11:13;2.40;99.90
28189;DHT22;15471;51.166;4.470;2023-01-29T08:13:39;2.40;99.90
28189;DHT22;15471;51.166;4.470;2023-01-29T08:16:06;2.40;99.90
28189;DHT22;15471;51.166;4.470;2023-01-29T08:30:53;2.50;99.90
28189;DHT22;15471;51.166;4.470;2023-01-29T08:33:19;2.60;99.90
28189;DHT22;15471;51.166;4.470;2023-01-29T08:35:50;2.60;99.90
28189;DHT22;15471;51.166;4.470;2023-01-29T08:49:45;2.70;99.90
28189;DHT22;15471;51.166;4.470;2023-01-29T08:52:13;2.80;99.90
28189;DHT22;15471;51.166;4.470;2023-01-29T08:54:39;2.90;99.90
28189;DHT22;15471;51.166;4.470;2023-01-29T08:57:05;3.00;99.90
28189;DHT22;15471;51.166;4.470;2023-01-29T08:59:30;3.10;99.90
28189;DHT22;15471;51.166;4.470;2023-01-29T09:02:19;3.10;99.90
28189;DHT22;15471;51.166;4.470;2023-01-29T09:08:08;3.10;99.90
28189;DHT22;15471;51.166;4.470;2023-01-29T09:10:35;3.10;99.90
28189;DHT22;15471;51.166;4.470;2023-01-29T09:13:01;3.00;99.90
28189;DHT22;15471;51.166;4.470;2023-01-29T09:15:27;3.10;99.90
28189;DHT22;15471;51.166;4.470;2023-01-29T09:17:53;3.10;99.90
28189;DHT22;15471;51.166;4.470;2023-01-29T09:27:27;3.00;99.90
28189;DHT22;15471;51.166;4.470;2023-01-29T09:33:49;3.10;99.90
28189;DHT22;15471;51.166;4.470;2023-01-29T09:36:15;3.10;99.90
28189;DHT22;15471;51.166;4.470;2023-01-29T09:38:41;3.10;99.90
28189;DHT22;15471;51.166;4.470;2023-01-29T09:43:46;3.20;99.90
28189;DHT22;15471;51.166;4.470;2023-01-29T09:48:40;3.30;99.90
28189;DHT22;15471;51.166;4.470;2023-01-29T09:51:21;3.30;99.90
28189;DHT22;15471;51.166;4.470;2023-01-29T09:53:57;3.40;99.90
28189;DHT22;15471;51.166;4.470;2023-01-29T09:56:28;3.30;99.90
28189;DHT22;15471;51.166;4.470;2023-01-29T10:30:53;3.60;99.90
28189;DHT22;15471;51.166;4.470;2023-01-29T10:33:38;3.60;99.90
28189;DHT22;15471;51.166;4.470;2023-01-29T10:36:09;3.70;99.90
28189;DHT22;15471;51.166;4.470;2023-01-29T10:38:42;3.80;99.90
28189;DHT22;15471;51.166;4.470;2023-01-29T10:44:12;3.90;99.90
28189;DHT22;15471;51.166;4.470;2023-01-29T10:46:56;4.00;99.90
28189;DHT22;15471;51.166;4.470;2023-01-29T10:55:24;4.20;99.90
28189;DHT22;15471;51.166;4.470;2023-01-29T11:00:40;4.10;99.90
28189;DHT22;15471;51.166;4.470;2023-01-29T11:03:22;4.20;99.90
28189;DHT22;15471;51.166;4.470;2023-01-29T11:05:50;4.30;99.90
28189;DHT22;15471;51.166;4.470;2023-01-29T11:08:21;4.20;99.90
28189;DHT22;15471;51.166;4.470;2023-01-29T11:13:33;4.40;99.90
28189;DHT22;15471;51.166;4.470;2023-01-29T11:16:04;4.70;99.90
28189;DHT22;15471;51.166;4.470;2023-01-29T11:18:57;4.80;99.90
28189;DHT22;15471;51.166;4.470;2023-01-29T11:21:57;5.00;99.90
28189;DHT22;15471;51.166;4.470;2023-01-29T11:24:27;5.10;99.90
28189;DHT22;15471;51.166;4.470;2023-01-29T11:26:58;5.30;99.90
28189;DHT22;15471;51.166;4.470;2023-01-29T11:29:38;5.40;99.90
28189;DHT22;15471;51.166;4.470;2023-01-29T11:32:33;5.20;99.90
28189;DHT22;15471;51.166;4.470;2023-01-29T11:37:39;5.40;99.90
28189;DHT22;15471;51.166;4.470;2023-01-29T11:42:44;5.80;99.90
28189;DHT22;15471;51.166;4.470;2023-01-29T11:47:52;6.20;99.90
28189;DHT22;15471;51.166;4.470;2023-01-29T11:50:24;6.40;99.90
28189;DHT22;15471;51.166;4.470;2023-01-29T11:52:54;6.50;99.90
28189;DHT22;15471;51.166;4.470;2023-01-29T11:55:26;6.40;99.90
28189;DHT22;15471;51.166;4.470;2023-01-29T11:58:03;6.40;99.90
28189;DHT22;15471;51.166;4.470;2023-01-29T12:00:33;6.40;99.90
28189;DHT22;15471;51.166;4.470;2023-01-29T12:03:14;6.50;99.90
28189;DHT22;15471;51.166;4.470;2023-01-29T12:05:58;6.50;99.90
28189;DHT22;15471;51.166;4.470;2023-01-29T12:08:37;6.50;99.90
28189;DHT22;15471;51.166;4.470;2023-01-29T12:11:23;6.40;99.90
28189;DHT22;15471;51.166;4.470;2023-01-29T12:13:53;6.40;99.90
28189;DHT22;15471;51.166;4.470;2023-01-29T12:16:36;6.40;99.90
28189;DHT22;15471;51.166;4.470;2023-01-29T12:22:14;6.60;99.90
28189;DHT22;15471;51.166;4.470;2023-01-29T12:24:52;6.70;99.90
28189;DHT22;15471;51.166;4.470;2023-01-29T12:27:45;6.80;99.90
28189;DHT22;15471;51.166;4.470;2023-01-29T12:30:12;6.90;99.90
28189;DHT22;15471;51.166;4.470;2023-01-29T12:32:51;6.90;99.90
28189;DHT22;15471;51.166;4.470;2023-01-29T12:40:26;6.90;99.90
28189;DHT22;15471;51.166;4.470;2023-01-29T12:43:00;6.70;99.90
28189;DHT22;15471;51.166;4.470;2023-01-29T12:45:29;6.30;99.90
28189;DHT22;15471;51.166;4.470;2023-01-29T12:48:07;6.20;99.90
28189;DHT22;15471;51.166;4.470;2023-01-29T12:50:36;6.20;99.90
28189;DHT22;15471;51.166;4.470;2023-01-29T12:55:41;6.30;99.90
28189;DHT22;15471;51.166;4.470;2023-01-29T12:58:20;6.40;99.90
28189;DHT22;15471;51.166;4.470;2023-01-29T13:00:53;6.40;99.90
28189;DHT22;15471;51.166;4.470;2023-01-29T13:06:11;6.20;99.90
28189;DHT22;15471;51.166;4.470;2023-01-29T13:08:53;6.40;99.90
28189;DHT22;15471;51.166;4.470;2023-01-29T13:11:37;6.40;99.90
28189;DHT22;15471;51.166;4.470;2023-01-29T13:14:23;6.60;99.90
28189;DHT22;15471;51.166;4.470;2023-01-29T13:16:53;6.50;99.90
28189;DHT22;15471;51.166;4.470;2023-01-29T13:19:28;6.40;99.90
28189;DHT22;15471;51.166;4.470;2023-01-29T13:21:59;6.40;99.90
28189;DHT22;15471;51.166;4.470;2023-01-29T13:24:35;6.40;99.90
28189;DHT22;15471;51.166;4.470;2023-01-29T13:27:02;6.30;99.90
28189;DHT22;15471;51.166;4.470;2023-01-29T13:29:30;6.20;99.90
28189;DHT22;15471;51.166;4.470;2023-01-29T13:31:57;6.10;99.90
28189;DHT22;15471;51.166;4.470;2023-01-29T13:34:32;6.10;99.90
28189;DHT22;15471;51.166;4.470;2023-01-29T13:37:20;6.20;99.90
28189;DHT22;15471;51.166;4.470;2023-01-29T13:39:50;6.10;99.90
28189;DHT22;15471;51.166;4.470;2023-01-29T13:44:53;6.00;99.90
28189;DHT22;15471;51.166;4.470;2023-01-29T13:47:32;6.00;99.90
28189;DHT22;15471;51.166;4.470;2023-01-29T13:50:06;6.00;99.90
28189;DHT22;15471;51.166;4.470;2023-01-29T13:52:39;5.90;99.90
28189;DHT22;15471;51.166;4.470;2023-01-29T14:10:34;5.70;99.90
28189;DHT22;15471;51.166;4.470;2023-01-29T14:15:33;5.70;99.90
28189;DHT22;15471;51.166;4.470;2023-01-29T14:18:03;5.70;99.90
28189;DHT22;15471;51.166;4.470;2023-01-29T14:20:38;5.70;99.90
28189;DHT22;15471;51.166;4.470;2023-01-29T14:23:07;5.80;99.90
28189;DHT22;15471;51.166;4.470;2023-01-29T14:25:45;5.70;99.90
28189;DHT22;15471;51.166;4.470;2023-01-29T14:28:20;5.60;99.90
28189;DHT22;15471;51.166;4.470;2023-01-29T14:30:47;5.60;99.90
28189;DHT22;15471;51.166;4.470;2023-01-29T14:35:52;5.60;99.90
28189;DHT22;15471;51.166;4.470;2023-01-29T14:38:22;5.60;99.90
28189;DHT22;15471;51.166;4.470;2023-01-29T14:40:49;5.60;99.90
28189;DHT22;15471;51.166;4.470;2023-01-29T14:43:17;5.60;99.90
28189;DHT22;15471;51.166;4.470;2023-01-29T14:45:45;5.70;99.90
28189;DHT22;15471;51.166;4.470;2023-01-29T14:50:51;5.80;99.90
28189;DHT22;15471;51.166;4.470;2023-01-29T14:56:16;5.70;99.90
28189;DHT22;15471;51.166;4.470;2023-01-29T14:58:53;5.70;99.90
28189;DHT22;15471;51.166;4.470;2023-01-29T15:03:59;5.70;99.90
28189;DHT22;15471;51.166;4.470;2023-01-29T15:06:37;5.70;99.90
28189;DHT22;15471;51.166;4.470;2023-01-29T15:12:02;5.70;99.90
28189;DHT22;15471;51.166;4.470;2023-01-29T15:14:33;5.70;99.90
28189;DHT22;15471;51.166;4.470;2023-01-29T15:17:17;5.70;99.90
28189;DHT22;15471;51.166;4.470;2023-01-29T15:19:46;5.80;99.90
28189;DHT22;15471;51.166;4.470;2023-01-29T15:22:20;5.70;99.90
28189;DHT22;15471;51.166;4.470;2023-01-29T15:25:00;5.60;99.90
28189;DHT22;15471;51.166;4.470;2023-01-29T15:27:27;5.60;99.90
28189;DHT22;15471;51.166;4.470;2023-01-29T15:29:58;5.60;99.90
28189;DHT22;15471;51.166;4.470;2023-01-29T15:32:43;5.70;99.90
28189;DHT22;15471;51.166;4.470;2023-01-29T15:35:25;5.60;99.90
28189;DHT22;15471;51.166;4.470;2023-01-29T15:38:17;5.50;99.90
28189;DHT22;15471;51.166;4.470;2023-01-29T15:40:57;5.50;99.90
28189;DHT22;15471;51.166;4.470;2023-01-29T15:43:26;5.50;99.90
28189;DHT22;15471;51.166;4.470;2023-01-29T15:45:55;5.40;99.90
28189;DHT22;15471;51.166;4.470;2023-01-29T15:48:34;5.40;99.90
28189;DHT22;15471;51.166;4.470;2023-01-29T15:51:05;5.40;99.90
28189;DHT22;15471;51.166;4.470;2023-01-29T15:53:40;5.40;99.90
28189;DHT22;15471;51.166;4.470;2023-01-29T15:56:11;5.40;99.90
28189;DHT22;15471;51.166;4.470;2023-01-29T15:58:39;5.40;99.90
28189;DHT22;15471;51.166;4.470;2023-01-29T16:01:06;5.20;99.90
28189;DHT22;15471;51.166;4.470;2023-01-29T16:03:41;5.10;99.90
28189;DHT22;15471;51.166;4.470;2023-01-29T16:06:10;5.00;99.90
28189;DHT22;15471;51.166;4.470;2023-01-29T16:08:47;5.10;99.90
28189;DHT22;15471;51.166;4.470;2023-01-29T16:11:14;5.10;99.90
28189;DHT22;15471;51.166;4.470;2023-01-29T16:13:41;5.10;99.90
28189;DHT22;15471;51.166;4.470;2023-01-29T16:16:18;5.10;99.90
28189;DHT22;15471;51.166;4.470;2023-01-29T16:18:45;5.00;99.90
28189;DHT22;15471;51.166;4.470;2023-01-29T16:21:33;4.90;99.90
28189;DHT22;15471;51.166;4.470;2023-01-29T16:24:11;4.80;99.90
28189;DHT22;15471;51.166;4.470;2023-01-29T16:26:42;4.80;99.90
28189;DHT22;15471;51.166;4.470;2023-01-29T16:29:19;4.80;99.90
28189;DHT22;15471;51.166;4.470;2023-01-29T16:31:47;4.70;99.90
28189;DHT22;15471;51.166;4.470;2023-01-29T16:36:48;4.90;99.90
28189;DHT22;15471;51.166;4.470;2023-01-29T16:39:37;4.80;99.90
28189;DHT22;15471;51.166;4.470;2023-01-29T16:47:58;4.80;99.90
28189;DHT22;15471;51.166;4.470;2023-01-29T16:53:16;4.70;99.90
28189;DHT22;15471;51.166;4.470;2023-01-29T16:55:44;4.70;99.90
28189;DHT22;15471;51.166;4.470;2023-01-29T16:58:15;4.70;99.90
28189;DHT22;15471;51.166;4.470;2023-01-29T17:00:47;4.70;99.90
28189;DHT22;15471;51.166;4.470;2023-01-29T17:03:16;4.60;99.90
28189;DHT22;15471;51.166;4.470;2023-01-29T17:05:43;4.60;99.90
28189;DHT22;15471;51.166;4.470;2023-01-29T17:08:26;4.50;99.90
28189;DHT22;15471;51.166;4.470;2023-01-29T17:10:53;4.60;99.90
28189;DHT22;15471;51.166;4.470;2023-01-29T17:13:36;4.50;99.90
28189;DHT22;15471;51.166;4.470;2023-01-29T17:18:52;4.60;99.90
28189;DHT22;15471;51.166;4.470;2023-01-29T17:21:18;4.50;99.90
28189;DHT22;15471;51.166;4.470;2023-01-29T17:23:44;4.50;99.90
28189;DHT22;15471;51.166;4.470;2023-01-29T17:26:12;4.50;99.90
28189;DHT22;15471;51.166;4.470;2023-01-29T17:28:39;4.50;99.90
28189;DHT22;15471;51.166;4.470;2023-01-29T17:31:06;4.50;99.90
28189;DHT22;15471;51.166;4.470;2023-01-29T17:33:33;4.40;99.90
28189;DHT22;15471;51.166;4.470;2023-01-29T17:35:59;4.40;99.90
28189;DHT22;15471;51.166;4.470;2023-01-29T17:38:25;4.50;99.90
28189;DHT22;15471;51.166;4.470;2023-01-29T17:43:42;4.40;99.90
28189;DHT22;15471;51.166;4.470;2023-01-29T17:46:16;4.40;99.90
28189;DHT22;15471;51.166;4.470;2023-01-29T17:48:43;4.50;99.90
28189;DHT22;15471;51.166;4.470;2023-01-29T17:51:15;4.50;99.90
28189;DHT22;15471;51.166;4.470;2023-01-29T17:53:42;4.50;99.90
28189;DHT22;15471;51.166;4.470;2023-01-29T17:56:14;4.50;99.90
28189;DHT22;15471;51.166;4.470;2023-01-29T17:58:40;4.60;99.90
28189;DHT22;15471;51.166;4.470;2023-01-29T18:01:06;4.50;99.90
28189;DHT22;15471;51.166;4.470;2023-01-29T18:03:32;4.50;99.90
28189;DHT22;15471;51.166;4.470;2023-01-29T18:05:58;4.50;99.90
28189;DHT22;15471;51.166;4.470;2023-01-29T18:08:29;4.60;99.90
28189;DHT22;15471;51.166;4.470;2023-01-29T18:10:58;4.50;99.90
28189;DHT22;15471;51.166;4.470;2023-01-29T18:13:24;4.60;99.90
28189;DHT22;15471;51.166;4.470;2023-01-29T18:15:51;4.70;99.90
28189;DHT22;15471;51.166;4.470;2023-01-29T18:18:22;4.70;99.90
28189;DHT22;15471;51.166;4.470;2023-01-29T18:20:48;4.70;99.90
28189;DHT22;15471;51.166;4.470;2023-01-29T18:23:15;4.70;99.90
28189;DHT22;15471;51.166;4.470;2023-01-29T18:25:41;4.70;99.90
28189;DHT22;15471;51.166;4.470;2023-01-29T18:28:15;4.70;99.90
28189;DHT22;15471;51.166;4.470;2023-01-29T18:30:43;4.70;99.90
28189;DHT22;15471;51.166;4.470;2023-01-29T18:33:10;4.60;99.90
28189;DHT22;15471;51.166;4.470;2023-01-29T18:35:36;4.50;99.90
28189;DHT22;15471;51.166;4.470;2023-01-29T18:38:02;4.50;99.90
28189;DHT22;15471;51.166;4.470;2023-01-29T18:40:30;4.50;99.90
28189;DHT22;15471;51.166;4.470;2023-01-29T18:42:56;4.50;99.90
28189;DHT22;15471;51.166;4.470;2023-01-29T18:45:26;4.60;99.90
28189;DHT22;15471;51.166;4.470;2023-01-29T18:47:52;4.50;99.90
28189;DHT22;15471;51.166;4.470;2023-01-29T18:50:18;4.60;99.90
28189;DHT22;15471;51.166;4.470;2023-01-29T18:52:44;4.60;99.90
28189;DHT22;15471;51.166;4.470;2023-01-29T18:55:10;4.60;99.90
28189;DHT22;15471;51.166;4.470;2023-01-29T18:57:36;4.60;99.90
28189;DHT22;15471;51.166;4.470;2023-01-29T19:00:04;4.70;99.90
28189;DHT22;15471;51.166;4.470;2023-01-29T19:02:30;4.80;99.90
28189;DHT22;15471;51.166;4.470;2023-01-29T19:04:55;4.80;99.90
28189;DHT22;15471;51.166;4.470;2023-01-29T19:07:21;4.90;99.90
28189;DHT22;15471;51.166;4.470;2023-01-29T19:09:47;4.80;99.90
28189;DHT22;15471;51.166;4.470;2023-01-29T19:12:15;4.70;99.90
28189;DHT22;15471;51.166;4.470;2023-01-29T19:14:41;4.70;99.90
28189;DHT22;15471;51.166;4.470;2023-01-29T19:17:07;4.70;99.90
28189;DHT22;15471;51.166;4.470;2023-01-29T19:19:33;4.70;99.90
28189;DHT22;15471;51.166;4.470;2023-01-29T19:21:59;4.70;99.90
28189;DHT22;15471;51.166;4.470;2023-01-29T19:24:25;4.70;99.90
28189;DHT22;15471;51.166;4.470;2023-01-29T19:26:55;4.70;99.90
28189;DHT22;15471;51.166;4.470;2023-01-29T19:29:21;4.80;99.90
28189;DHT22;15471;51.166;4.470;2023-01-29T19:31:47;4.80;99.90
28189;DHT22;15471;51.166;4.470;2023-01-29T19:34:13;4.80;99.90
28189;DHT22;15471;51.166;4.470;2023-01-29T19:36:43;4.70;99.90
28189;DHT22;15471;51.166;4.470;2023-01-29T19:39:12;4.80;99.90
28189;DHT22;15471;51.166;4.470;2023-01-29T19:41:39;4.70;99.90
28189;DHT22;15471;51.166;4.470;2023-01-29T19:44:09;4.60;99.90
28189;DHT22;15471;51.166;4.470;2023-01-29T19:46:36;4.70;99.90
28189;DHT22;15471;51.166;4.470;2023-01-29T19:49:01;4.70;99.90
28189;DHT22;15471;51.166;4.470;2023-01-29T19:51:28;4.60;99.90
28189;DHT22;15471;51.166;4.470;2023-01-29T19:53:54;4.60;99.90
28189;DHT22;15471;51.166;4.470;2023-01-29T19:56:20;4.60;99.90
28189;DHT22;15471;51.166;4.470;2023-01-29T19:58:46;4.60;99.90
28189;DHT22;15471;51.166;4.470;2023-01-29T20:01:18;4.60;99.90
28189;DHT22;15471;51.166;4.470;2023-01-29T20:03:47;4.60;99.90
28189;DHT22;15471;51.166;4.470;2023-01-29T20:06:15;4.60;99.90
28189;DHT22;15471;51.166;4.470;2023-01-29T20:08:42;4.60;99.90
28189;DHT22;15471;51.166;4.470;2023-01-29T20:11:12;4.50;99.90
28189;DHT22;15471;51.166;4.470;2023-01-29T20:13:41;4.50;99.90
28189;DHT22;15471;51.166;4.470;2023-01-29T20:16:07;4.50;99.90
28189;DHT22;15471;51.166;4.470;2023-01-29T20:18:36;4.60;99.90
28189;DHT22;15471;51.166;4.470;2023-01-29T20:21:08;4.60;99.90
28189;DHT22;15471;51.166;4.470;2023-01-29T20:23:34;4.60;99.90
28189;DHT22;15471;51.166;4.470;2023-01-29T20:26:04;4.70;99.90
28189;DHT22;15471;51.166;4.470;2023-01-29T20:28:39;4.70;99.90
28189;DHT22;15471;51.166;4.470;2023-01-29T20:31:07;4.70;99.90
28189;DHT22;15471;51.166;4.470;2023-01-29T20:33:33;4.70;99.90
28189;DHT22;15471;51.166;4.470;2023-01-29T20:36:02;4.70;99.90
28189;DHT22;15471;51.166;4.470;2023-01-29T20:38:28;4.60;99.90
28189;DHT22;15471;51.166;4.470;2023-01-29T20:41:12;4.60;99.90
28189;DHT22;15471;51.166;4.470;2023-01-29T20:43:38;4.60;99.90
28189;DHT22;15471;51.166;4.470;2023-01-29T20:46:04;4.70;99.90
28189;DHT22;15471;51.166;4.470;2023-01-29T20:48:30;4.80;99.90
28189;DHT22;15471;51.166;4.470;2023-01-29T20:51:09;4.80;99.90
28189;DHT22;15471;51.166;4.470;2023-01-29T20:53:40;4.70;99.90
28189;DHT22;15471;51.166;4.470;2023-01-29T20:56:20;4.70;99.90
28189;DHT22;15471;51.166;4.470;2023-01-29T20:58:46;4.80;99.90
28189;DHT22;15471;51.166;4.470;2023-01-29T21:01:18;4.80;99.90
28189;DHT22;15471;51.166;4.470;2023-01-29T21:03:47;4.80;99.90
28189;DHT22;15471;51.166;4.470;2023-01-29T21:06:14;4.90;99.90
28189;DHT22;15471;51.166;4.470;2023-01-29T21:08:40;4.80;99.90
28189;DHT22;15471;51.166;4.470;2023-01-29T21:11:07;4.80;99.90
28189;DHT22;15471;51.166;4.470;2023-01-29T21:13:33;4.90;99.90
28189;DHT22;15471;51.166;4.470;2023-01-29T21:16:09;4.90;99.90
28189;DHT22;15471;51.166;4.470;2023-01-29T21:18:41;4.90;99.90